Terminal Aerodrome Forecast
Issued by NWS Quad Cities IA IL

Home | Current Version | Previous Version | Text Only | Print | Product List | Glossary On
Versions: 1 2 3 4 5 6 7 8 9 10 11 12 13 14 15 16 17 18 19 20 21 22 23 24 25
000
FTUS43 KDVN 310500
TAFDBQ
TAF
KDBQ 310520Z 3106/0106 VRB02KT 5SM BR SKC
     FM310900 VRB02KT 2SM BR SCT008
      TEMPO 3109/3113 1/2SM FG BKN004
     FM311300 18005KT 5SM BR FEW005
     FM311500 18009KT P6SM SCT050=

USA.gov is the U.S. government's official web portal to all federal, state and local government web resources and services.